Main page
METAR-TAF:

METAR-TAF

Airports :

Tehran Imam Khomeini International Airport

Tehran, Iran

latitude: 35-24-58N, longitude: 51-09-08E, elevation: 1007 m

Current weather observation

The report was made 1 hour and 8 minutes ago, at 08:00 UTC
Wind 14 kt from the Northwest
Temperature 6°C
Humidity 42%
Pressure 1025 hPa
Visibility 10 km or more
no clouds below 1500 m and no cumulonimbus

METAR: OIIE 270800Z 32014KT CAVOK 06/M06 Q1025

Time: 12:38 (09:08 UTC)

Forecast

The report was made 3 hours and 38 minutes ago, at 05:30 UTC
Forecast valid from 27 at 06 UTC to 28 at 12 UTC
Wind 8 kt from the West/Northwest
Visibility: 8000 m

TAF: OIIE 270530Z 2706/2812 30008KT 8000 NSC

Weather observations and forecasts of more than 4000 airports (METAR and TAF reports).

The available stations are represented by yellow and red dots on the map.

Hover mouse over dot to see the name of the station.

Then click to see weather observations and forecasts.

To change the map : click on the green buttons with a black cross to zoom in, on the green button with a dash to zoom out, or on the green arrows for adjacent maps.


METAR-TAF: